Time;durP1;ratioP1;P1;durP2;ratioP2;P2;SDS_P1;SDS_P2;PMS_P1;PMS_P2;Temp;Humidity;BMP_temperature;BMP_pressure;BME280_temperature;BME280_humidity;BME280_pressure;Samples;Min_cycle;Max_cycle;Signal;HPM_P1;HPM_P2
2021/09/29 00:01:00;;;;;;;11.73;7.68;;;;;;;15.62;90.85;100603.78;5056036;28;20486;-75
2021/09/29 00:03:30;;;;;;;11.77;8.02;;;;;;;15.60;90.49;100601.22;5056003;28;20044;-75
2021/09/29 00:05:58;;;;;;;11.75;7.85;;;;;;;15.60;89.79;100605.72;5055956;28;20494;-76
2021/09/29 00:08:27;;;;;;;11.35;7.68;;;;;;;15.57;90.05;100604.13;5055826;28;20064;-80
2021/09/29 00:10:56;;;;;;;10.88;7.85;;;;;;;15.54;90.56;100608.84;5056017;28;20091;-77
2021/09/29 00:13:26;;;;;;;11.55;7.70;;;;;;;15.59;90.79;100610.25;5055989;28;20045;-76
2021/09/29 00:15:55;;;;;;;11.45;7.53;;;;;;;15.60;90.92;100605.72;5055796;28;20504;-76
2021/09/29 00:18:24;;;;;;;12.85;8.02;;;;;;;15.55;90.42;100610.59;5055624;28;20057;-75
2021/09/29 00:20:54;;;;;;;11.90;7.82;;;;;;;15.49;90.92;100600.28;5055896;28;20401;-74
2021/09/29 00:23:24;;;;;;;13.50;7.63;;;;;;;15.56;90.61;100609.63;5055817;28;20500;-74
2021/09/29 00:25:53;;;;;;;13.05;7.30;;;;;;;15.67;89.50;100604.31;5055909;28;20047;-76
2021/09/29 00:28:21;;;;;;;13.50;7.50;;;;;;;15.77;88.57;100602.66;5055540;28;20053;-75
2021/09/29 00:31:01;;;;;;;13.88;7.78;;;;;;;15.56;89.37;100598.88;5055126;28;20099;-75
2021/09/29 00:33:30;;;;;;;15.15;7.70;;;;;;;15.52;89.52;100598.22;5055218;28;20041;-75
2021/09/29 00:36:00;;;;;;;12.98;7.78;;;;;;;15.46;89.97;100601.38;5055599;28;20099;-75
2021/09/29 00:38:30;;;;;;;12.00;8.00;;;;;;;15.44;89.57;100606.88;5055399;28;20065;-79
2021/09/29 00:40:59;;;;;;;11.15;7.40;;;;;;;15.29;90.82;100605.31;5055325;28;20478;-77
2021/09/29 00:43:27;;;;;;;13.38;8.07;;;;;;;15.16;92.20;100609.91;5054160;28;20048;-75
2021/09/29 00:45:56;;;;;;;12.40;7.68;;;;;;;15.04;92.57;100613.47;5055422;28;20041;-75
2021/09/29 00:48:24;;;;;;;11.40;7.53;;;;;;;14.99;93.11;100611.13;5055446;28;20445;-75
2021/09/29 00:50:52;;;;;;;14.32;7.75;;;;;;;14.93;93.56;100605.34;5054913;28;20072;-76
2021/09/29 00:53:22;;;;;;;12.52;7.28;;;;;;;14.88;93.78;100603.00;5055129;28;20558;-75
2021/09/29 00:55:50;;;;;;;13.63;7.78;;;;;;;14.79;94.25;100609.88;5054709;28;20053;-76
2021/09/29 00:58:18;;;;;;;14.45;8.25;;;;;;;14.78;93.97;100608.19;5055265;28;20047;-76
2021/09/29 01:00:46;;;;;;;14.75;8.05;;;;;;;14.78;94.47;100612.69;5054742;28;20048;-75
2021/09/29 01:03:15;;;;;;;9.75;7.55;;;;;;;14.91;94.83;100601.91;5055060;28;20044;-73
2021/09/29 01:05:47;;;;;;;11.77;7.65;;;;;;;14.94;94.10;100607.91;5054645;28;20073;-74
2021/09/29 01:08:21;;;;;;;13.03;7.63;;;;;;;14.88;95.33;100611.06;5054826;28;20406;-74
2021/09/29 01:11:00;;;;;;;10.27;7.10;;;;;;;14.93;93.30;100602.66;5053668;28;20348;-74
2021/09/29 01:13:34;;;;;;;13.10;7.93;;;;;;;14.92;93.20;100604.47;5054872;28;20059;-74
2021/09/29 01:16:06;;;;;;;11.57;8.10;;;;;;;14.87;94.09;100599.47;5054730;28;20116;-74
2021/09/29 01:18:39;;;;;;;12.88;7.88;;;;;;;14.87;93.74;100606.66;5054426;28;20394;-75
2021/09/29 01:21:10;;;;;;;13.15;8.02;;;;;;;14.76;94.15;100599.34;5054971;28;20041;-75
2021/09/29 01:24:00;;;;;;;12.13;7.88;;;;;;;14.88;93.78;100592.25;5054505;28;20049;-75
2021/09/29 01:26:33;;;;;;;12.43;8.05;;;;;;;14.94;93.03;100585.56;5054674;28;20382;-76
2021/09/29 01:29:03;;;;;;;;;;;;;;;14.80;93.48;100595.50;5055179;28;20045;-76
2021/09/29 01:31:32;;;;;;;11.75;7.93;;;;;;;14.74;94.13;100585.19;5054467;28;19925;-82
2021/09/29 01:34:02;;;;;;;12.27;7.95;;;;;;;14.67;94.78;100596.47;5054326;28;20067;-75
2021/09/29 01:36:31;;;;;;;12.50;7.88;;;;;;;14.67;95.27;100588.41;5054298;28;20402;-79
2021/09/29 01:39:01;;;;;;;12.43;7.88;;;;;;;14.69;94.11;100589.19;5053830;28;20091;-76
2021/09/29 01:41:33;;;;;;;12.30;7.70;;;;;;;14.65;94.94;100582.31;5054038;28;20091;-77
2021/09/29 01:44:01;;;;;;;12.00;7.57;;;;;;;14.87;93.70;100577.97;5054291;28;20536;-77
2021/09/29 01:46:30;;;;;;;12.15;7.40;;;;;;;15.07;92.23;100584.56;5054110;28;20049;-77
2021/09/29 01:49:05;;;;;;;12.38;8.10;;;;;;;15.06;92.10;100584.69;5054327;28;20052;-75
2021/09/29 01:51:37;;;;;;;12.25;7.57;;;;;;;14.96;92.83;100583.63;5053681;28;20099;-78
2021/09/29 01:54:07;;;;;;;15.15;8.13;;;;;;;14.82;92.58;100581.94;5053942;28;20063;-77
2021/09/29 01:56:37;;;;;;;14.98;7.75;;;;;;;14.87;92.28;100579.81;5053877;28;20470;-75
2021/09/29 01:59:06;;;;;;;11.98;7.70;;;;;;;14.73;91.88;100582.59;5054175;28;20051;-75
2021/09/29 02:01:36;;;;;;;13.45;7.75;;;;;;;14.63;93.87;100587.78;5053491;28;20041;-76
2021/09/29 02:04:05;;;;;;;14.52;7.88;;;;;;;14.78;91.35;100586.69;5054092;28;20375;-75
2021/09/29 02:06:44;;;;;;;12.98;7.82;;;;;;;14.75;91.98;100588.72;5053360;28;20106;-80
2021/09/29 02:09:12;;;;;;;13.90;8.20;;;;;;;14.73;91.95;100583.47;5053712;28;20409;-75
2021/09/29 02:11:42;;;;;;;12.50;8.00;;;;;;;14.56;93.10;100587.34;5053472;28;20045;-75
2021/09/29 02:14:10;;;;;;;12.25;7.35;;;;;;;14.70;91.92;100585.53;5053775;28;20040;-74
2021/09/29 02:16:39;;;;;;;12.98;7.63;;;;;;;14.70;91.57;100589.06;5053113;28;20045;-75
2021/09/29 02:19:08;;;;;;;10.88;7.15;;;;;;;14.73;91.46;100590.66;5053662;28;20095;-74
2021/09/29 02:21:38;;;;;;;14.07;7.97;;;;;;;14.74;91.02;100587.88;5052993;28;20123;-75
2021/09/29 02:24:07;;;;;;;14.68;7.88;;;;;;;14.61;91.57;100589.72;5053705;28;20087;-75
2021/09/29 02:26:36;;;;;;;14.90;7.75;;;;;;;14.64;91.08;100588.63;5053096;28;20052;-79
2021/09/29 02:29:07;;;;;;;9.77;6.95;;;;;;;14.74;90.59;100593.25;5053347;28;20056;-74
2021/09/29 02:31:36;;;;;;;13.85;7.53;;;;;;;14.64;91.00;100584.13;5053313;28;20053;-80
2021/09/29 02:34:05;;;;;;;11.18;7.03;;;;;;;14.49;91.83;100585.25;5053360;28;20044;-74
2021/09/29 02:36:33;;;;;;;11.90;8.18;;;;;;;14.38;92.79;100587.78;5053491;28;20045;-74
2021/09/29 02:39:02;;;;;;;13.35;8.30;;;;;;;14.47;92.62;100590.69;5053476;28;20191;-74
2021/09/29 02:41:30;;;;;;;12.43;7.57;;;;;;;14.61;91.18;100584.34;5053113;28;20044;-74
2021/09/29 02:43:58;;;;;;;13.55;7.35;;;;;;;14.74;90.13;100585.19;5052876;28;20053;-74
2021/09/29 02:46:28;;;;;;;10.43;7.30;;;;;;;14.67;90.04;100591.97;5053076;28;20064;-74
2021/09/29 02:48:56;;;;;;;11.82;6.88;;;;;;;14.63;90.67;100587.78;5052949;28;20045;-74
2021/09/29 02:51:24;;;;;;;11.95;7.47;;;;;;;14.60;90.64;100593.38;5052241;28;20049;-73
2021/09/29 02:53:53;;;;;;;14.25;7.53;;;;;;;14.71;89.85;100590.78;5051853;28;20057;-73
2021/09/29 02:56:21;;;;;;;11.02;7.75;;;;;;;14.66;90.20;100595.59;5053097;28;20056;-73
2021/09/29 02:58:49;;;;;;;13.52;7.65;;;;;;;14.65;90.18;100583.16;5052559;28;20065;-74
2021/09/29 03:01:17;;;;;;;10.82;6.78;;;;;;;14.67;90.01;100593.78;5052636;28;20060;-74
2021/09/29 03:03:47;;;;;;;13.52;7.80;;;;;;;14.67;89.73;100586.63;5052742;28;20041;-74
2021/09/29 03:06:16;;;;;;;11.95;7.82;;;;;;;14.63;89.90;100587.78;5052786;28;20079;-75
2021/09/29 03:08:44;;;;;;;13.13;8.02;;;;;;;14.63;89.82;100585.09;5052599;28;20044;-75
2021/09/29 03:11:13;;;;;;;11.77;7.18;;;;;;;14.68;89.59;100580.28;5052727;28;20049;-75
2021/09/29 03:13:42;;;;;;;12.05;7.35;;;;;;;14.55;90.02;100587.47;5052764;28;20041;-77
2021/09/29 03:16:10;;;;;;;12.63;7.57;;;;;;;14.54;89.74;100588.44;5053117;28;20102;-78
2021/09/29 03:18:38;;;;;;;12.95;7.18;;;;;;;14.54;90.16;100589.28;5052795;28;20136;-79
2021/09/29 03:21:08;;;;;;;12.75;7.82;;;;;;;14.52;90.46;100579.66;5052647;28;20041;-75
2021/09/29 03:23:37;;;;;;;11.40;7.60;;;;;;;14.54;91.53;100586.63;5052584;28;20075;-77
2021/09/29 03:26:05;;;;;;;13.40;8.20;;;;;;;14.62;90.85;100583.38;5052934;28;20041;-77
2021/09/29 03:28:33;;;;;;;11.98;7.68;;;;;;;14.73;90.09;100583.47;5052845;28;20049;-75
2021/09/29 03:31:01;;;;;;;14.18;8.38;;;;;;;14.59;90.67;100589.00;5052319;28;20045;-75
2021/09/29 03:33:30;;;;;;;11.38;7.55;;;;;;;14.57;90.79;100588.22;5052636;28;20037;-74
2021/09/29 03:35:58;;;;;;;11.18;7.72;;;;;;;14.46;90.74;100588.13;5052801;28;20923;-74
2021/09/29 03:38:32;;;;;;;12.73;7.18;;;;;;;14.52;90.74;100588.56;5052697;28;20037;-74
2021/09/29 03:41:01;;;;;;;14.50;7.88;;;;;;;14.60;90.16;100583.50;5052362;28;20037;-74
2021/09/29 03:43:31;;;;;;;13.85;8.13;;;;;;;14.61;90.63;100584.34;5052581;28;20378;-74
2021/09/29 03:46:00;;;;;;;13.18;8.23;;;;;;;14.68;90.26;100584.78;5052592;28;20051;-74
2021/09/29 03:48:28;;;;;;;13.13;7.38;;;;;;;14.66;90.58;100586.69;5052461;28;20049;-74
2021/09/29 03:50:57;;;;;;;12.93;7.93;;;;;;;14.74;89.53;100582.50;5052041;28;20481;-74
2021/09/29 03:53:25;;;;;;;14.40;8.25;;;;;;;14.60;90.16;100583.50;5052460;28;20454;-74
2021/09/29 03:55:54;;;;;;;12.55;7.38;;;;;;;14.67;89.57;100583.94;5052299;28;20059;-74
2021/09/29 03:58:23;;;;;;;12.75;8.25;;;;;;;14.55;90.14;100584.78;5052463;28;20453;-74
2021/09/29 04:00:51;;;;;;;11.35;7.60;;;;;;;14.58;90.47;100589.97;5052096;28;20494;-74
2021/09/29 04:03:19;;;;;;;11.40;7.28;;;;;;;14.58;90.24;100585.44;5055916;28;20083;-74
2021/09/29 04:05:50;;;;;;;12.30;7.15;;;;;;;14.45;91.21;100583.72;5058233;28;20433;-74
2021/09/29 04:08:18;;;;;;;12.25;7.07;;;;;;;14.63;90.37;100582.41;5056908;28;20037;-74
2021/09/29 04:10:46;;;;;;;12.30;7.53;;;;;;;14.75;89.50;100583.34;5055891;28;20127;-74
2021/09/29 04:13:16;;;;;;;11.25;7.25;;;;;;;14.71;89.46;100580.03;5056112;28;20585;-74
2021/09/29 04:15:47;;;;;;;11.85;7.68;;;;;;;14.69;89.70;100581.13;5056356;28;20102;-77
2021/09/29 04:18:15;;;;;;;13.35;8.10;;;;;;;14.72;89.45;100576.38;5057794;28;20546;-77
2021/09/29 04:20:44;;;;;;;12.27;7.70;;;;;;;14.42;90.66;100573.19;5057725;28;20498;-78
2021/09/29 04:23:12;;;;;;;10.52;7.60;;;;;;;14.37;90.71;100578.00;5057036;28;20037;-76
2021/09/29 04:25:41;;;;;;;14.38;8.40;;;;;;;14.63;89.69;100577.03;5057170;28;20041;-77
2021/09/29 04:28:09;;;;;;;11.90;7.63;;;;;;;14.52;90.05;100574.28;5056062;28;20505;-78
2021/09/29 04:30:39;;;;;;;12.13;7.32;;;;;;;14.36;90.99;100577.16;5055994;28;20062;-75
2021/09/29 04:33:07;;;;;;;12.30;7.40;;;;;;;14.50;90.58;100573.53;5071536;28;20512;-75
2021/09/29 04:35:38;;;;;;;13.77;7.97;;;;;;;14.64;89.53;100578.75;5056118;28;20049;-73
2021/09/29 04:38:06;;;;;;;13.38;7.63;;;;;;;14.63;89.16;100574.38;5055385;28;20041;-73
2021/09/29 04:40:34;;;;;;;13.05;7.30;;;;;;;14.55;89.59;100579.41;5055368;28;20047;-74
2021/09/29 04:43:02;;;;;;;11.95;7.78;;;;;;;14.43;90.18;100580.25;5054940;28;20072;-74
2021/09/29 04:45:31;;;;;;;11.73;7.60;;;;;;;14.47;90.01;100581.78;5055182;28;20095;-74
2021/09/29 04:48:04;;;;;;;13.57;7.72;;;;;;;14.49;89.97;100585.25;5055297;28;20041;-74
2021/09/29 04:50:32;;;;;;;10.83;7.00;;;;;;;14.52;89.81;100582.34;5055646;28;20033;-76
2021/09/29 04:53:01;;;;;;;11.50;7.30;;;;;;;14.55;89.78;100591.00;5055013;28;20052;-76
2021/09/29 04:55:30;;;;;;;13.05;7.13;;;;;;;14.66;88.94;100587.56;5055270;28;20045;-73
2021/09/29 04:58:01;;;;;;;11.32;6.97;;;;;;;14.61;89.19;100589.72;5054505;28;20076;-74
2021/09/29 05:00:30;;;;;;;12.20;7.82;;;;;;;14.71;89.05;100595.28;5055098;28;20124;-70
2021/09/29 05:03:00;;;;;;;12.93;8.43;;;;;;;14.71;89.68;100593.47;5057313;28;20044;-74
2021/09/29 05:05:33;;;;;;;15.35;8.40;;;;;;;14.60;89.24;100588.88;5053865;28;20375;-74
2021/09/29 05:08:02;;;;;;;;;;;;;;;14.60;89.23;100593.38;5054744;28;20036;-74
2021/09/29 05:10:34;;;;;;;12.13;7.10;;;;;;;14.66;89.07;100590.25;5055058;28;19928;-71
2021/09/29 05:13:07;;;;;;;11.52;6.75;;;;;;;14.56;88.22;100586.50;5053387;28;20049;-71
2021/09/29 05:15:36;;;;;;;12.52;7.85;;;;;;;14.47;89.54;100596.06;5055035;28;20045;-73
2021/09/29 05:18:04;;;;;;;12.70;7.57;;;;;;;14.62;89.24;100599.50;5054235;28;20049;-73
2021/09/29 05:20:34;;;;;;;15.27;7.97;;;;;;;14.81;88.11;100597.19;5054443;28;20042;-78
2021/09/29 05:23:03;;;;;;;12.25;7.93;;;;;;;14.56;88.55;100590.03;5054467;28;20037;-78
2021/09/29 05:25:32;;;;;;;13.43;7.53;;;;;;;14.53;88.81;100602.84;5054582;28;20072;-74
2021/09/29 05:28:01;;;;;;;12.63;7.10;;;;;;;14.70;87.90;100604.31;5053671;28;20071;-72
2021/09/29 05:30:29;;;;;;;13.07;7.43;;;;;;;14.98;87.11;100601.34;5042101;28;20049;-73
2021/09/29 05:32:58;;;;;;;11.20;8.13;;;;;;;14.86;87.84;100608.50;5041217;28;20127;-73
2021/09/29 05:35:26;;;;;;;13.82;7.70;;;;;;;14.89;87.91;100608.25;5042855;28;20057;-73
2021/09/29 05:37:56;;;;;;;14.95;8.52;;;;;;;14.80;88.03;100616.97;5044038;28;20045;-73
2021/09/29 05:40:25;;;;;;;12.38;7.72;;;;;;;14.89;87.85;100627.06;5044658;28;20452;-73
2021/09/29 05:42:53;;;;;;;13.73;8.38;;;;;;;15.02;86.78;100615.41;5043679;28;20073;-73
2021/09/29 05:45:22;;;;;;;13.30;7.82;;;;;;;14.88;87.68;100619.97;5041698;28;20037;-74
2021/09/29 05:47:50;;;;;;;11.23;7.45;;;;;;;14.94;87.38;100607.06;5042933;28;20099;-74
2021/09/29 05:50:18;;;;;;;11.98;8.00;;;;;;;15.03;86.54;100611.75;5050676;28;20448;-69
2021/09/29 05:52:47;;;;;;;15.25;8.77;;;;;;;15.20;86.42;100618.59;5053870;28;20048;-70
2021/09/29 05:55:19;;;;;;;13.13;8.38;;;;;;;15.17;86.46;100619.69;5055150;28;20123;-71
2021/09/29 05:57:47;;;;;;;17.02;8.23;;;;;;;15.07;86.85;100622.19;5053643;28;20053;-70
2021/09/29 06:00:16;;;;;;;15.02;9.82;;;;;;;15.13;87.07;100623.53;5041936;28;20475;-71
2021/09/29 06:02:44;;;;;;;13.45;7.88;;;;;;;15.26;86.09;100619.00;5043346;28;20049;-70
2021/09/29 06:05:13;;;;;;;16.15;9.50;;;;;;;15.47;85.36;100627.28;5038797;28;20117;-71
2021/09/29 06:07:41;;;;;;;14.13;8.32;;;;;;;15.40;85.22;100632.25;5043690;28;20490;-70
2021/09/29 06:10:10;;;;;;;15.40;8.90;;;;;;;15.49;84.51;100619.13;5043688;28;20041;-71
2021/09/29 06:12:43;;;;;;;13.38;7.95;;;;;;;15.37;85.42;100623.56;5038672;28;20062;-70
2021/09/29 06:15:20;;;;;;;16.15;8.43;;;;;;;15.29;86.00;100624.13;5043845;28;20045;-70
2021/09/29 06:17:55;;;;;;;14.52;8.13;;;;;;;15.48;84.93;100622.78;5042535;28;20037;-71
2021/09/29 06:20:24;;;;;;;14.25;8.07;;;;;;;15.48;84.37;100628.16;5043994;28;20039;-70
2021/09/29 06:22:52;;;;;;;9.85;6.82;;;;;;;15.48;84.04;100629.00;5036621;28;20144;-71
2021/09/29 06:25:21;;;;;;;11.75;7.97;;;;;;;15.39;84.92;100627.84;5033302;28;20041;-70
2021/09/29 06:27:51;;;;;;;11.88;7.75;;;;;;;15.44;84.85;100625.69;5033079;28;20124;-69
2021/09/29 06:30:20;;;;;;;12.93;7.90;;;;;;;15.31;85.23;100619.50;5033145;28;20041;-71
2021/09/29 06:32:48;;;;;;;13.30;7.72;;;;;;;15.26;85.76;100620.84;5032091;28;20119;-70
2021/09/29 06:35:24;;;;;;;12.38;7.70;;;;;;;15.40;84.72;100626.03;5033474;28;20053;-70
2021/09/29 06:37:52;;;;;;;14.65;7.95;;;;;;;15.40;85.30;100631.41;5033345;28;20046;-77
2021/09/29 06:40:21;;;;;;;13.55;7.90;;;;;;;15.43;84.93;100633.84;5033458;28;20124;-70
2021/09/29 06:42:51;;;;;;;13.98;8.27;;;;;;;15.31;85.55;100624.88;5033320;28;20041;-73
2021/09/29 06:45:20;;;;;;;16.33;8.25;;;;;;;15.36;85.74;100636.16;5033135;28;20045;-71
2021/09/29 06:47:53;;;;;;;14.50;7.82;;;;;;;15.44;85.32;100639.16;5033153;28;20124;-70
2021/09/29 06:50:21;;;;;;;14.50;8.30;;;;;;;15.58;84.16;100637.25;5033341;28;20042;-70
2021/09/29 06:52:56;;;;;;;13.38;8.23;;;;;;;15.59;84.15;100645.19;5032898;28;20049;-69
2021/09/29 06:55:24;;;;;;;13.20;8.27;;;;;;;15.39;84.96;100641.31;5033056;28;20052;-70
2021/09/29 06:57:54;;;;;;;13.27;7.53;;;;;;;15.29;85.64;100648.31;5033023;28;20048;-71
2021/09/29 07:00:23;;;;;;;10.98;7.75;;;;;;;15.46;85.44;100652.47;5032817;28;20449;-72
2021/09/29 07:02:51;;;;;;;14.05;8.02;;;;;;;15.36;85.53;100652.28;5032782;28;20136;-70
2021/09/29 07:05:20;;;;;;;15.07;7.82;;;;;;;15.39;85.88;100657.44;5032682;28;20037;-70
2021/09/29 07:07:48;;;;;;;13.27;7.43;;;;;;;15.42;85.75;100651.81;5050822;28;20041;-69
2021/09/29 07:10:16;;;;;;;12.70;7.95;;;;;;;15.17;86.51;100657.28;5051383;28;20056;-70
2021/09/29 07:12:45;;;;;;;14.02;8.30;;;;;;;15.17;86.90;100660.84;5051266;28;20037;-72
2021/09/29 07:15:15;;;;;;;16.70;8.55;;;;;;;14.95;87.68;100657.09;5052188;28;20045;-71
2021/09/29 07:17:44;;;;;;;14.38;9.05;;;;;;;15.15;87.12;100662.78;5051933;28;20521;-71
2021/09/29 07:20:12;;;;;;;14.50;8.50;;;;;;;15.26;86.95;100661.16;5051876;28;20048;-71
2021/09/29 07:22:46;;;;;;;15.90;8.43;;;;;;;15.45;86.39;100657.00;5052169;28;20048;-69
2021/09/29 07:25:14;;;;;;;13.38;8.23;;;;;;;15.52;85.63;100657.38;5051645;28;20490;-70
2021/09/29 07:27:43;;;;;;;13.20;8.27;;;;;;;15.36;86.91;100662.19;5052161;28;20131;-71
2021/09/29 07:30:12;;;;;;;12.82;8.48;;;;;;;15.51;86.05;100660.19;5052122;28;20045;-70
2021/09/29 07:32:45;;;;;;;17.02;8.50;;;;;;;15.55;86.20;100654.47;5052544;28;20037;-70
2021/09/29 07:35:14;;;;;;;13.43;8.35;;;;;;;15.38;86.27;100647.66;5052211;28;20060;-70
2021/09/29 07:37:42;;;;;;;15.48;8.75;;;;;;;15.26;87.14;100655.78;5054973;28;20048;-70
2021/09/29 07:40:12;;;;;;;13.40;7.97;;;;;;;15.26;87.84;100656.63;5056008;28;20111;-70
2021/09/29 07:42:41;;;;;;;12.70;7.55;;;;;;;15.32;87.42;100650.78;5056188;28;20041;-70
2021/09/29 07:45:10;;;;;;;19.20;9.52;;;;;;;15.50;87.03;100655.78;5056145;28;20052;-71
2021/09/29 07:47:39;;;;;;;13.35;7.82;;;;;;;15.48;87.23;100655.03;5056377;28;20398;-70
2021/09/29 07:50:12;;;;;;;13.15;8.02;;;;;;;15.53;87.42;100664.47;5056268;28;20045;-71
2021/09/29 07:52:40;;;;;;;;;;;;;;;15.57;87.37;100665.97;5056790;28;20045;-71
2021/09/29 07:55:09;;;;;;;14.05;7.85;;;;;;;15.49;88.12;100668.34;5056210;28;19927;-71
2021/09/29 07:57:42;;;;;;;;;;;;;;;15.45;88.28;100667.75;5056932;28;20037;-70
2021/09/29 08:00:12;;;;;;;16.23;8.63;;;;;;;15.40;88.67;100675.28;5055938;28;19921;-71
2021/09/29 08:02:41;;;;;;;14.88;9.45;;;;;;;15.14;89.82;100674.47;5056125;28;20482;-70
2021/09/29 08:05:11;;;;;;;12.93;8.02;;;;;;;15.24;89.79;100666.59;5055638;28;20048;-70
2021/09/29 08:07:45;;;;;;;16.50;9.23;;;;;;;15.26;90.35;100671.88;5056338;28;20073;-70
2021/09/29 08:10:13;;;;;;;14.52;8.57;;;;;;;15.23;90.40;100667.56;5055866;28;20087;-71
2021/09/29 08:12:41;;;;;;;16.63;8.93;;;;;;;15.22;90.79;100655.13;5056039;28;20068;-70
2021/09/29 08:15:13;;;;;;;16.10;8.75;;;;;;;15.32;90.56;100657.97;5055921;28;20095;-71
2021/09/29 08:17:42;;;;;;;14.18;9.05;;;;;;;15.29;91.09;100663.59;5056029;28;20049;-71
2021/09/29 08:20:18;;;;;;;17.05;8.93;;;;;;;15.25;91.28;100673.72;5055567;28;20051;-71
2021/09/29 08:22:54;;;;;;;16.30;9.68;;;;;;;15.41;91.14;100660.00;5055673;28;20049;-71
2021/09/29 08:25:36;;;;;;;16.73;9.10;;;;;;;15.67;90.06;100660.78;5055299;28;20049;-70
2021/09/29 08:28:12;;;;;;;15.48;9.48;;;;;;;15.56;90.99;100663.41;5055242;28;20482;-70
2021/09/29 08:30:54;;;;;;;15.23;8.90;;;;;;;15.61;90.78;100661.25;5055813;28;20037;-70
2021/09/29 08:33:41;;;;;;;16.07;9.43;;;;;;;15.55;91.26;100661.69;5055186;28;20190;-70
2021/09/29 08:36:19;;;;;;;15.40;9.25;;;;;;;15.67;91.35;100666.16;5054877;28;20045;-69
2021/09/29 08:38:52;;;;;;;15.88;9.52;;;;;;;15.65;91.87;100668.13;5055347;28;20139;-70
2021/09/29 08:41:36;;;;;;;16.92;9.18;;;;;;;15.54;92.31;100671.59;5055019;28;20516;-70
2021/09/29 08:44:08;;;;;;;15.20;9.95;;;;;;;15.43;93.21;100680.41;5054772;28;20123;-70
2021/09/29 08:46:46;;;;;;;14.70;9.80;;;;;;;15.46;93.29;100685.59;5054984;28;20037;-70
2021/09/29 08:49:22;;;;;;;15.20;10.05;;;;;;;15.69;92.42;100674.97;5052640;28;20393;-69
2021/09/29 08:54:47;;;;;;;17.92;10.73;;;;;;;15.81;91.71;100678.56;5052162;28;20057;-70
2021/09/29 09:16:58;;;;;;;17.30;10.50;;;;;;;16.62;88.78;100688.50;5054703;28;20455;-70
2021/09/29 09:19:29;;;;;;;18.90;11.18;;;;;;;16.66;88.80;100689.94;5054712;28;20289;-70
2021/09/29 09:21:59;;;;;;;18.02;10.63;;;;;;;16.76;88.85;100696.38;5054936;28;20441;-71
2021/09/29 09:24:32;;;;;;;17.95;10.60;;;;;;;16.78;89.78;100697.09;5054523;28;20127;-69
2021/09/29 09:27:02;;;;;;;17.27;10.60;;;;;;;16.80;90.20;100692.47;5054787;28;20094;-70
2021/09/29 09:29:31;;;;;;;17.17;10.63;;;;;;;16.81;90.30;100697.72;5054505;28;20052;-70
2021/09/29 09:32:10;;;;;;;18.27;11.50;;;;;;;16.92;89.28;100694.19;5053287;28;20060;-70
2021/09/29 09:34:38;;;;;;;18.50;11.27;;;;;;;16.78;90.33;100691.72;5054272;28;20116;-71
2021/09/29 09:37:09;;;;;;;17.02;10.68;;;;;;;16.71;91.15;100693.19;5054046;28;20045;-71
2021/09/29 09:39:39;;;;;;;23.92;12.00;;;;;;;16.66;91.43;100698.03;5054449;28;20063;-70
2021/09/29 09:42:08;;;;;;;18.05;11.77;;;;;;;16.68;90.90;100696.06;5054065;28;20091;-71
2021/09/29 09:44:39;;;;;;;18.10;12.48;;;;;;;16.50;93.18;100695.66;5054147;28;20131;-70
2021/09/29 09:47:11;;;;;;;21.83;12.52;;;;;;;16.39;94.43;100699.19;5053834;28;20037;-71
2021/09/29 09:49:47;;;;;;;21.77;12.98;;;;;;;16.34;95.95;100693.34;5054086;28;20045;-70
2021/09/29 09:52:27;;;;;;;19.33;12.98;;;;;;;16.38;96.86;100696.63;5054156;28;20440;-70
2021/09/29 09:55:03;;;;;;;22.17;13.80;;;;;;;16.39;97.32;100690.28;5054174;28;20037;-70
2021/09/29 09:57:33;;;;;;;22.50;15.20;;;;;;;16.38;98.05;100692.09;5053915;28;20461;-71
2021/09/29 10:00:03;;;;;;;20.98;13.10;;;;;;;16.39;98.23;100691.13;5053558;28;20052;-71
2021/09/29 10:02:39;;;;;;;21.55;13.90;;;;;;;16.30;99.51;100691.84;5054064;28;20099;-71
2021/09/29 10:05:09;;;;;;;25.30;13.90;;;;;;;16.40;98.92;100690.16;5053543;28;20215;-71
2021/09/29 10:07:38;;;;;;;20.58;13.50;;;;;;;16.33;100.00;100691.63;5053731;28;20145;-70
2021/09/29 10:10:14;;;;;;;21.63;13.45;;;;;;;16.18;100.00;100692.78;5052815;28;20111;-72
2021/09/29 10:13:03;;;;;;;28.83;14.38;;;;;;;16.29;100.00;100690.13;5053750;28;20498;-70
2021/09/29 10:27:13;;;;;;;21.23;13.73;;;;;;;16.27;100.00;100692.94;5150542;27;20668;-71
2021/09/29 10:29:45;;;;;;;21.38;13.55;;;;;;;16.24;100.00;100695.88;5151069;27;20043;-71
2021/09/29 10:32:20;;;;;;;25.38;14.32;;;;;;;16.42;100.00;100693.59;5151413;27;20039;-70
2021/09/29 10:35:12;;;;;;;20.90;14.50;;;;;;;16.35;100.00;100700.44;5151339;27;20500;-70
2021/09/29 10:40:53;;;;;;;;;;;;;;;16.34;100.00;100696.03;5111863;27;20413;-69
2021/09/29 10:43:30;;;;;;;21.38;13.75;;;;;;;16.41;100.00;100696.41;5150877;27;19919;-71
2021/09/29 10:46:05;;;;;;;21.55;14.48;;;;;;;16.41;100.00;100697.28;5151306;27;20092;-71
2021/09/29 11:03:16;;;;;;;23.45;14.50;;;;;;;16.54;100.00;100695.31;5149854;27;20067;-70
2021/09/29 11:11:48;;;;;;;21.65;13.38;;;;;;;16.68;100.00;100696.06;5150883;27;20042;-70
2021/09/29 11:28:53;;;;;;;20.05;11.70;;;;;;;16.88;100.00;100681.91;5139229;27;20104;-70
2021/09/29 11:31:24;;;;;;;18.50;12.73;;;;;;;16.83;100.00;100679.59;5150585;27;20381;-71
2021/09/29 11:34:01;;;;;;;18.25;12.02;;;;;;;16.88;100.00;100676.53;5150970;27;20136;-70
2021/09/29 11:36:50;;;;;;;18.55;12.18;;;;;;;16.84;100.00;100670.53;5148631;27;20039;-71
2021/09/29 11:39:38;;;;;;;18.65;12.32;;;;;;;16.98;100.00;100661.34;5136695;27;20091;-71
2021/09/29 12:08:04;;;;;;;25.27;14.23;;;;;;;16.70;100.00;100664.53;5032443;28;20125;-70
2021/09/29 12:10:34;;;;;;;20.10;12.25;;;;;;;16.87;100.00;100662.19;5122676;27;20078;-71
2021/09/29 12:13:08;;;;;;;19.35;12.73;;;;;;;16.95;100.00;100661.59;5135115;27;20122;-70
2021/09/29 12:15:48;;;;;;;24.23;13.85;;;;;;;16.93;100.00;100660.00;5134862;27;20043;-70
2021/09/29 12:18:17;;;;;;;20.40;13.18;;;;;;;16.99;100.00;100663.06;5134569;27;20122;-71
2021/09/29 12:20:53;;;;;;;22.60;13.70;;;;;;;17.04;100.00;100662.69;5135324;27;20039;-71
2021/09/29 12:23:24;;;;;;;18.45;12.13;;;;;;;17.02;100.00;100661.97;5135166;27;20445;-70
2021/09/29 12:26:03;;;;;;;21.98;12.65;;;;;;;16.97;100.00;100662.31;5133829;27;20065;-69
2021/09/29 12:28:36;;;;;;;20.10;13.18;;;;;;;16.97;100.00;100658.75;5135817;27;20437;-70
2021/09/29 12:31:25;;;;;;;22.83;13.30;;;;;;;16.91;100.00;100654.75;5135834;27;20035;-70
2021/09/29 12:33:58;;;;;;;26.95;14.02;;;;;;;16.85;100.00;100655.22;5135692;27;20295;-70
2021/09/29 12:36:31;;;;;;;23.17;14.00;;;;;;;16.86;100.00;100654.25;5135304;27;20039;-70
2021/09/29 12:39:02;;;;;;;23.52;12.75;;;;;;;16.96;100.00;100660.59;5135963;27;20047;-70
2021/09/29 12:41:32;;;;;;;23.13;13.15;;;;;;;17.03;100.00;100659.13;5135235;27;20092;-70
2021/09/29 12:44:01;;;;;;;23.75;13.52;;;;;;;17.11;100.00;100656.69;5135505;27;20117;-70
2021/09/29 12:46:30;;;;;;;21.67;13.68;;;;;;;17.16;100.00;100656.28;5135001;27;20516;-70
2021/09/29 12:49:02;;;;;;;21.38;13.68;;;;;;;17.08;100.00;100647.97;5134487;27;20491;-70
2021/09/29 12:51:32;;;;;;;22.67;13.48;;;;;;;17.13;100.00;100653.88;5135338;27;20046;-70
2021/09/29 12:54:05;;;;;;;23.88;14.23;;;;;;;17.25;100.00;100646.59;5135354;27;20043;-70
2021/09/29 12:56:33;;;;;;;26.48;14.43;;;;;;;17.19;100.00;100657.91;5134752;27;20043;-70
2021/09/29 12:59:02;;;;;;;25.02;15.70;;;;;;;17.25;100.00;100650.16;5135473;27;20047;-69
2021/09/29 13:01:30;;;;;;;25.92;15.23;;;;;;;17.15;100.00;100658.13;5135015;27;20047;-70
2021/09/29 13:03:59;;;;;;;26.73;14.88;;;;;;;17.05;100.00;100657.16;5135081;27;20147;-70
2021/09/29 13:06:27;;;;;;;22.05;13.95;;;;;;;17.40;100.00;100664.25;5133745;27;20071;-70
2021/09/29 13:08:55;;;;;;;21.80;13.68;;;;;;;17.26;100.00;100648.31;5134682;27;20050;-70